createdAt,value
2023-05-05T00:00:49.902Z,65.0508
2023-05-05T00:01:52.355Z,64.3191
2023-05-05T00:02:54.866Z,64.8082
2023-05-05T00:03:57.574Z,64.7299
2023-05-05T00:05:00.008Z,63.4503
2023-05-05T00:06:02.459Z,63.7254
2023-05-05T00:07:04.909Z,62.3592
2023-05-05T00:08:07.577Z,60.5926
2023-05-05T00:09:10.054Z,60.3795
2023-05-05T00:10:12.486Z,62.8179
2023-05-05T00:11:15.259Z,64.7926
2023-05-05T00:12:17.761Z,65.6408
2023-05-05T00:13:20.364Z,66.2683
2023-05-05T00:14:22.811Z,66.6515
2023-05-05T00:15:25.289Z,66.6772
2023-05-05T00:16:28.047Z,67.0740
2023-05-05T00:17:30.516Z,67.5746
2023-05-05T00:18:33.019Z,68.3419
2023-05-05T00:19:35.473Z,68.2878
2023-05-05T00:20:37.953Z,67.4750
2023-05-05T00:21:40.429Z,66.0935
2023-05-05T00:22:42.930Z,66.3872
2023-05-05T00:23:45.406Z,66.8510
2023-05-05T00:24:47.902Z,67.0392
2023-05-05T00:25:50.773Z,66.2951
2023-05-05T00:26:53.276Z,66.2058
2023-05-05T00:27:55.783Z,66.5134
2023-05-05T00:28:58.280Z,66.9876
2023-05-05T00:30:00.780Z,66.7802
2023-05-05T00:31:03.283Z,66.6293
2023-05-05T00:32:05.787Z,66.9196
2023-05-05T00:33:08.353Z,67.1427
2023-05-05T00:34:10.898Z,66.6319
2023-05-05T00:35:13.392Z,67.4215
2023-05-05T00:36:15.861Z,67.3452
2023-05-05T00:37:18.371Z,67.9241
2023-05-05T00:38:21.101Z,67.5929
2023-05-05T00:39:23.613Z,67.6946
2023-05-05T00:40:26.134Z,67.7786
2023-05-05T00:41:28.681Z,67.1660
2023-05-05T00:42:31.202Z,67.5801
2023-05-05T00:43:33.766Z,67.2156
2023-05-05T00:44:36.306Z,67.3039
2023-05-05T00:45:38.796Z,67.2005
2023-05-05T00:46:41.435Z,67.7876
2023-05-05T00:47:43.941Z,67.8103
2023-05-05T00:48:46.419Z,68.5999
2023-05-05T00:49:48.916Z,68.7159
2023-05-05T00:50:51.388Z,68.8122
2023-05-05T00:51:53.840Z,69.1226
2023-05-05T00:52:56.317Z,69.5180
2023-05-05T00:53:58.823Z,69.9194
2023-05-05T00:55:01.318Z,70.2132
2023-05-05T00:56:03.762Z,70.1562
2023-05-05T00:57:06.219Z,70.4942
2023-05-05T00:58:08.686Z,70.7099
2023-05-05T00:59:11.148Z,70.5514
2023-05-05T01:00:13.631Z,71.0125
2023-05-05T01:01:16.100Z,71.1062
2023-05-05T01:02:18.539Z,71.1685
2023-05-05T01:03:21.051Z,71.4550
2023-05-05T01:04:23.550Z,71.4282
2023-05-05T01:05:25.974Z,71.5967
2023-05-05T01:06:28.462Z,71.8343
2023-05-05T01:07:30.907Z,71.9436
2023-05-05T01:08:33.373Z,72.3976
2023-05-05T01:09:35.893Z,72.1503
2023-05-05T01:10:38.325Z,71.2446
2023-05-05T01:11:40.824Z,70.5594
2023-05-05T01:12:43.333Z,69.2388
2023-05-05T01:13:45.797Z,68.6721
2023-05-05T01:14:48.268Z,69.7665
2023-05-05T01:15:50.773Z,70.6463
2023-05-05T01:16:53.197Z,70.7622
2023-05-05T01:17:55.699Z,71.3966
2023-05-05T01:18:58.185Z,71.3976
2023-05-05T01:20:00.745Z,72.0437
2023-05-05T01:21:03.224Z,71.6535
2023-05-05T01:22:05.700Z,71.9937
2023-05-05T01:23:08.178Z,71.8107
2023-05-05T01:24:10.917Z,72.2017
2023-05-05T01:25:13.364Z,72.9447
2023-05-05T01:26:15.788Z,73.2867
2023-05-05T01:27:18.257Z,73.5022
2023-05-05T01:28:20.739Z,73.6781
2023-05-05T01:29:23.242Z,74.2842
2023-05-05T01:30:25.709Z,74.4950
2023-05-05T01:31:28.248Z,74.5280
2023-05-05T01:32:30.716Z,74.5981
2023-05-05T01:33:33.109Z,74.3501
2023-05-05T01:34:35.628Z,74.7479
2023-05-05T01:35:38.075Z,75.2189
2023-05-05T01:36:40.528Z,75.3388
2023-05-05T01:37:43.020Z,75.1415
2023-05-05T01:38:45.711Z,75.4208
2023-05-05T01:39:48.166Z,75.2918
2023-05-05T01:40:50.635Z,74.9135
2023-05-05T01:41:53.066Z,75.2830
2023-05-05T01:42:55.565Z,75.1478
2023-05-05T01:43:58.038Z,75.1808
2023-05-05T01:45:00.509Z,75.4746
2023-05-05T01:46:03.236Z,75.2448
2023-05-05T01:47:05.741Z,75.3040
2023-05-05T01:48:08.189Z,75.1363
2023-05-05T01:49:10.648Z,75.2051
2023-05-05T01:50:13.112Z,74.2921
2023-05-05T01:51:15.573Z,73.5045
2023-05-05T01:52:18.044Z,72.8573
2023-05-05T01:53:20.740Z,72.4483
2023-05-05T01:54:23.185Z,72.3008
2023-05-05T01:55:25.645Z,71.7857
2023-05-05T01:56:28.366Z,71.4943
2023-05-05T01:57:30.815Z,70.5244
2023-05-05T01:58:33.517Z,69.5443
2023-05-05T01:59:36.014Z,70.0298
2023-05-05T02:00:38.494Z,69.6539
2023-05-05T02:01:41.057Z,70.2688
2023-05-05T02:02:43.576Z,70.2771
2023-05-05T02:03:46.128Z,69.9655
2023-05-05T02:04:48.600Z,69.2695
2023-05-05T02:05:51.388Z,69.4833
2023-05-05T02:06:53.837Z,70.0945
2023-05-05T02:07:56.329Z,70.0897
2023-05-05T02:08:58.838Z,69.7588
2023-05-05T02:10:01.357Z,66.4695
2023-05-05T02:11:03.915Z,63.1192
2023-05-05T02:12:06.416Z,64.6977
2023-05-05T02:13:09.016Z,66.3899
2023-05-05T02:14:11.762Z,67.3834
2023-05-05T02:15:14.281Z,65.4928
2023-05-05T02:16:16.901Z,66.0232
2023-05-05T02:17:19.472Z,66.2216
2023-05-05T02:18:21.949Z,66.6746
2023-05-05T02:19:22.321Z,67.0975
2023-05-05T02:20:24.848Z,67.5015
2023-05-05T02:21:27.684Z,66.9245
2023-05-05T02:22:30.140Z,67.2815
2023-05-05T02:23:32.683Z,68.5085
2023-05-05T02:24:35.170Z,67.8650
2023-05-05T02:25:37.638Z,68.2066
2023-05-05T02:26:40.400Z,68.8476
2023-05-05T02:27:42.872Z,68.9027
2023-05-05T02:28:45.633Z,68.8966
2023-05-05T02:29:48.080Z,69.5741
2023-05-05T02:30:50.745Z,69.9615
2023-05-05T02:31:53.472Z,70.0913
2023-05-05T02:32:55.979Z,70.8380
2023-05-05T02:33:58.782Z,71.4728
2023-05-05T02:35:01.254Z,71.0799
2023-05-05T02:36:03.959Z,70.6437
2023-05-05T02:37:06.411Z,70.2933
2023-05-05T02:38:08.823Z,71.4225
2023-05-05T02:39:11.585Z,71.7671
2023-05-05T02:40:14.063Z,71.8323
2023-05-05T02:41:16.824Z,71.8250
2023-05-05T02:42:19.244Z,72.2915
2023-05-05T02:43:21.733Z,72.6436
2023-05-05T02:44:24.533Z,72.7751
2023-05-05T02:45:26.937Z,73.3233
2023-05-05T02:46:29.700Z,74.0221
2023-05-05T02:47:32.147Z,74.1119
2023-05-05T02:48:34.620Z,74.7970
2023-05-05T02:49:37.314Z,74.8302
2023-05-05T02:50:39.812Z,74.1139
2023-05-05T02:51:42.275Z,74.0110
2023-05-05T02:52:44.719Z,74.1136
2023-05-05T02:53:47.165Z,74.5077
2023-05-05T02:54:49.595Z,74.7391
2023-05-05T02:55:52.061Z,75.0252
2023-05-05T02:56:54.490Z,75.4577
2023-05-05T02:57:56.917Z,75.6789
2023-05-05T02:58:59.381Z,75.7843
2023-05-05T03:00:01.835Z,75.7985
2023-05-05T03:01:04.296Z,75.8837
2023-05-05T03:02:07.079Z,75.9236
2023-05-05T03:03:09.595Z,75.7681
2023-05-05T03:04:12.072Z,75.6541
2023-05-05T03:05:14.481Z,75.9598
2023-05-05T03:06:17.046Z,76.0908
2023-05-05T03:07:19.499Z,75.2900
2023-05-05T03:08:21.916Z,74.7111
2023-05-05T03:09:24.394Z,75.0975
2023-05-05T03:10:26.841Z,75.7308
2023-05-05T03:11:29.300Z,76.3147
2023-05-05T03:12:31.779Z,76.6711
2023-05-05T03:13:34.189Z,76.0645
2023-05-05T03:14:36.661Z,76.1943
2023-05-05T03:15:39.111Z,76.7634
2023-05-05T03:16:41.638Z,76.5499
2023-05-05T03:17:44.142Z,76.5327
2023-05-05T03:18:46.602Z,76.2295
2023-05-05T03:19:49.062Z,76.5203
2023-05-05T03:20:51.491Z,75.3364
2023-05-05T03:21:53.949Z,74.3362
2023-05-05T03:22:56.380Z,73.9450
2023-05-05T03:23:58.836Z,72.7404
2023-05-05T03:25:01.287Z,72.3007
2023-05-05T03:26:03.739Z,72.4596
2023-05-05T03:27:06.389Z,72.7846
2023-05-05T03:28:08.804Z,73.4508
2023-05-05T03:29:11.234Z,73.0001
2023-05-05T03:30:13.665Z,72.0158
2023-05-05T03:31:16.152Z,71.5543
2023-05-05T03:32:18.601Z,70.7902
2023-05-05T03:33:21.017Z,70.5881
2023-05-05T03:34:23.487Z,70.3141
2023-05-05T03:35:25.929Z,71.0652
2023-05-05T03:36:29.502Z,70.8990
2023-05-05T03:37:32.018Z,70.9683
2023-05-05T03:38:34.566Z,71.5647
2023-05-05T03:39:36.986Z,71.5133
2023-05-05T03:40:44.196Z,71.7199
2023-05-05T03:41:40.710Z,71.6626
2023-05-05T03:42:43.152Z,71.3397
2023-05-05T03:43:45.816Z,71.5049
2023-05-05T03:44:48.294Z,71.0553
2023-05-05T03:45:50.781Z,70.3287
2023-05-05T03:46:51.116Z,70.1576
2023-05-05T03:47:53.609Z,70.0223
2023-05-05T03:48:56.399Z,70.3438
2023-05-05T03:49:58.816Z,70.9760
2023-05-05T03:51:01.273Z,71.0884
2023-05-05T03:52:04.078Z,71.5145
2023-05-05T03:53:06.543Z,70.3377
2023-05-05T03:54:09.314Z,69.9540
2023-05-05T03:55:11.750Z,70.1166
2023-05-05T03:56:14.224Z,69.6827
2023-05-05T03:57:17.015Z,69.9963
2023-05-05T03:58:19.420Z,71.0467
2023-05-05T03:59:21.862Z,70.8196
2023-05-05T04:00:24.330Z,70.1172
2023-05-05T04:01:27.049Z,69.4885
2023-05-05T04:02:29.591Z,68.4746
2023-05-05T04:03:32.164Z,68.3835
2023-05-05T04:04:34.791Z,68.1753
2023-05-05T04:05:37.323Z,68.1888
2023-05-05T04:06:39.816Z,68.6199
2023-05-05T04:07:42.279Z,68.9776
2023-05-05T04:08:44.757Z,69.0537
2023-05-05T04:09:47.222Z,69.3257
2023-05-05T04:10:49.736Z,69.5871
2023-05-05T04:11:52.224Z,70.2400
2023-05-05T04:12:54.683Z,72.3096
2023-05-05T04:13:57.115Z,75.9060
2023-05-05T04:14:59.635Z,76.8869
2023-05-05T04:16:02.120Z,76.1247
2023-05-05T04:17:04.607Z,75.3324
2023-05-05T04:18:07.104Z,75.1625
2023-05-05T04:19:09.570Z,75.5866
2023-05-05T04:20:12.047Z,75.7162
2023-05-05T04:21:14.492Z,74.8074
2023-05-05T04:22:16.937Z,75.0290
2023-05-05T04:23:19.380Z,74.9371
2023-05-05T04:24:21.831Z,75.0797
2023-05-05T04:25:24.285Z,74.9853
2023-05-05T04:26:26.711Z,73.3493
2023-05-05T04:27:29.228Z,71.1399
2023-05-05T04:28:31.661Z,71.3002
2023-05-05T04:29:34.152Z,70.7603
2023-05-05T04:30:36.636Z,69.0749
2023-05-05T04:31:39.114Z,68.6003
2023-05-05T04:32:41.539Z,69.9158
2023-05-05T04:33:44.105Z,71.1611
2023-05-05T04:34:46.609Z,70.2288
2023-05-05T04:35:49.028Z,69.2021
2023-05-05T04:36:51.478Z,67.4396
2023-05-05T04:37:53.904Z,65.2428
2023-05-05T04:38:56.433Z,68.1926
2023-05-05T04:39:58.900Z,70.9428
2023-05-05T04:41:01.358Z,68.7642
2023-05-05T04:42:03.867Z,67.2763
2023-05-05T04:43:06.276Z,67.7293
2023-05-05T04:44:08.745Z,68.0507
2023-05-05T04:45:11.169Z,68.5591
2023-05-05T04:46:13.691Z,69.0571
2023-05-05T04:47:16.429Z,69.7853
2023-05-05T04:48:18.905Z,70.0957
2023-05-05T04:49:21.411Z,71.2335
2023-05-05T04:50:23.835Z,71.4561
2023-05-05T04:51:26.296Z,72.0182
2023-05-05T04:52:28.781Z,73.3266
2023-05-05T04:53:31.234Z,73.8733
2023-05-05T04:54:33.729Z,73.8099
2023-05-05T04:55:36.167Z,73.7772
2023-05-05T04:56:38.641Z,72.2930
2023-05-05T04:57:41.114Z,70.1434
2023-05-05T04:58:43.575Z,68.7263
2023-05-05T04:59:46.035Z,68.5556
2023-05-05T05:00:48.500Z,67.6796
2023-05-05T05:01:51.185Z,67.9258
2023-05-05T05:02:53.715Z,66.1953
2023-05-05T05:03:56.224Z,64.2826
2023-05-05T05:04:58.670Z,63.8654
2023-05-05T05:06:01.108Z,64.5272
2023-05-05T05:07:03.619Z,66.2433
2023-05-05T05:08:06.026Z,67.5771
2023-05-05T05:09:08.498Z,67.1796
2023-05-05T05:10:11.108Z,69.5767
2023-05-05T05:11:13.657Z,72.7693
2023-05-05T05:12:16.145Z,72.7722
2023-05-05T05:13:18.747Z,72.8539
2023-05-05T05:14:21.252Z,73.7107
2023-05-05T05:15:23.719Z,73.8853
2023-05-05T05:16:26.347Z,74.1427
2023-05-05T05:17:28.839Z,74.5924
2023-05-05T05:18:31.286Z,74.8367
2023-05-05T05:19:33.752Z,72.4343
2023-05-05T05:20:36.218Z,71.1454
2023-05-05T05:21:38.665Z,74.2238
2023-05-05T05:22:41.150Z,73.7163
2023-05-05T05:23:43.606Z,74.9790
2023-05-05T05:24:46.188Z,75.8849
2023-05-05T05:25:48.674Z,76.5981
2023-05-05T05:26:50.891Z,76.1588
2023-05-05T05:28:06.131Z,77.0857
2023-05-05T05:28:54.398Z,77.1736
2023-05-05T05:29:57.083Z,77.8767
2023-05-05T05:30:59.550Z,77.6825
2023-05-05T05:32:02.106Z,77.6338
2023-05-05T05:33:04.539Z,77.8334
2023-05-05T05:34:04.895Z,77.5807
2023-05-05T05:35:07.370Z,75.8977
2023-05-05T05:36:09.817Z,75.7759
2023-05-05T05:37:12.512Z,76.4022
2023-05-05T05:38:14.991Z,76.4735
2023-05-05T05:39:17.670Z,75.5095
2023-05-05T05:40:20.098Z,75.6985
2023-05-05T05:41:22.584Z,75.9047
2023-05-05T05:42:25.251Z,76.2846
2023-05-05T05:43:27.726Z,74.7486
2023-05-05T05:44:30.430Z,74.3756
2023-05-05T05:45:32.910Z,75.1282
2023-05-05T05:46:35.452Z,74.0518
2023-05-05T05:47:38.232Z,74.6265
2023-05-05T05:48:40.694Z,74.6014
2023-05-05T05:49:43.383Z,74.6479
2023-05-05T05:50:45.990Z,75.1312
2023-05-05T05:51:48.420Z,75.5806
2023-05-05T05:52:50.838Z,75.2416
2023-05-05T05:53:53.361Z,75.1540
2023-05-05T05:54:55.780Z,74.2940
2023-05-05T05:55:58.263Z,73.1275
2023-05-05T05:57:00.826Z,72.9599
2023-05-05T05:58:03.257Z,72.8214
2023-05-05T05:59:05.712Z,71.6901
2023-05-05T06:00:08.669Z,70.5348
2023-05-05T06:01:11.379Z,70.8738
2023-05-05T06:02:14.176Z,71.6200
2023-05-05T06:03:16.868Z,70.6784
2023-05-05T06:04:19.678Z,70.6283
2023-05-05T06:05:22.125Z,71.2287
2023-05-05T06:06:24.583Z,70.9275
2023-05-05T06:07:30.688Z,70.1867
2023-05-05T06:08:33.150Z,68.4886
2023-05-05T06:09:35.922Z,69.3659
2023-05-05T06:10:38.357Z,70.7498
2023-05-05T06:11:40.798Z,71.1167
2023-05-05T06:12:43.439Z,71.3198
2023-05-05T06:13:45.884Z,71.0089
2023-05-05T06:14:48.590Z,71.0511
2023-05-05T06:15:51.096Z,68.0729
2023-05-05T06:16:53.619Z,71.0403
2023-05-05T06:17:56.061Z,69.5082
2023-05-05T06:18:58.536Z,68.9379
2023-05-05T06:20:01.348Z,68.7117
2023-05-05T06:21:03.802Z,66.8538
2023-05-05T06:22:06.281Z,64.8997
2023-05-05T06:23:08.742Z,62.5477
2023-05-05T06:24:11.243Z,59.2014
2023-05-05T06:25:13.927Z,57.9344
2023-05-05T06:26:16.418Z,59.1822
2023-05-05T06:27:18.884Z,57.6160
2023-05-05T06:28:21.353Z,58.2948
2023-05-05T06:29:23.958Z,60.7579
2023-05-05T06:30:26.449Z,58.8971
2023-05-05T06:31:28.977Z,58.5101
2023-05-05T06:32:31.435Z,57.7954
2023-05-05T06:33:33.881Z,58.4795
2023-05-05T06:34:36.617Z,57.9187
2023-05-05T06:35:39.044Z,58.5737
2023-05-05T06:36:41.604Z,59.2914
2023-05-05T06:37:44.392Z,58.5718
2023-05-05T06:38:46.828Z,57.2487
2023-05-05T06:39:49.314Z,56.3616
2023-05-05T06:40:51.796Z,56.7577
2023-05-05T06:41:54.271Z,56.3973
2023-05-05T06:42:56.669Z,56.7464
2023-05-05T06:43:59.103Z,57.6673
2023-05-05T06:45:01.902Z,61.0213
2023-05-05T06:46:04.327Z,60.7644
2023-05-05T06:47:06.837Z,58.5368
2023-05-05T06:48:09.335Z,58.2635
2023-05-05T06:49:11.766Z,58.8244
2023-05-05T06:50:14.277Z,59.2352
2023-05-05T06:51:16.756Z,58.2300
2023-05-05T06:52:19.242Z,56.3982
2023-05-05T06:53:21.701Z,54.2743
2023-05-05T06:54:24.198Z,55.0884
2023-05-05T06:55:26.875Z,54.0960
2023-05-05T06:56:29.364Z,53.6067
2023-05-05T06:57:31.880Z,53.7863
2023-05-05T06:58:34.358Z,53.1108
2023-05-05T06:59:36.837Z,51.0734
2023-05-05T07:00:39.412Z,50.9575
2023-05-05T07:01:41.895Z,52.9590
2023-05-05T07:02:42.702Z,51.8227
2023-05-05T07:03:45.284Z,53.8942
2023-05-05T07:04:48.026Z,55.0744
2023-05-05T07:05:50.523Z,55.1349
2023-05-05T07:06:53.005Z,53.5726
2023-05-05T07:07:55.503Z,52.3191
2023-05-05T07:08:57.976Z,51.6444
2023-05-05T07:10:00.483Z,52.6292
2023-05-05T07:11:02.960Z,54.0677
2023-05-05T07:12:05.412Z,52.8257
2023-05-05T07:13:07.977Z,51.9810
2023-05-05T07:14:10.535Z,52.7600
2023-05-05T07:15:26.933Z,51.4207
2023-05-05T07:16:14.190Z,49.4922
2023-05-05T07:17:16.693Z,50.8391
2023-05-05T07:18:19.200Z,52.9282
2023-05-05T07:19:21.717Z,52.4233
2023-05-05T07:20:24.445Z,51.4816
2023-05-05T07:21:27.081Z,51.1155
2023-05-05T07:22:29.623Z,55.4293
2023-05-05T07:23:32.163Z,51.6094
2023-05-05T07:24:34.604Z,48.1062
2023-05-05T07:25:37.119Z,49.1341
2023-05-05T07:26:39.612Z,52.0900
2023-05-05T07:28:42.438Z,51.7999
2023-05-05T07:28:42.438Z,52.2353
2023-05-05T07:29:44.957Z,51.8939
2023-05-05T07:30:47.482Z,52.1988
2023-05-05T07:31:50.040Z,52.1129
2023-05-05T07:32:52.541Z,53.2698
2023-05-05T07:33:55.001Z,50.8377
2023-05-05T07:34:57.507Z,52.7868
2023-05-05T07:36:00.457Z,52.4985
2023-05-05T07:37:02.957Z,53.0791
2023-05-05T07:38:05.652Z,50.4316
2023-05-05T07:39:08.448Z,52.4430
2023-05-05T07:40:11.145Z,52.1154
2023-05-05T07:41:13.787Z,51.3575
2023-05-05T07:42:16.282Z,50.1315
2023-05-05T07:43:18.810Z,50.9275
2023-05-05T07:44:21.344Z,53.3154
2023-05-05T07:45:24.112Z,54.5617
2023-05-05T07:46:26.678Z,54.7074
2023-05-05T07:47:29.200Z,54.7068
2023-05-05T07:48:31.666Z,52.6975
2023-05-05T07:49:34.411Z,53.5374
2023-05-05T07:51:40.541Z,52.4788
2023-05-05T07:51:40.541Z,53.7018
2023-05-05T07:52:48.416Z,52.2801
2023-05-05T07:53:44.152Z,52.7295
2023-05-05T07:54:46.685Z,53.6913
2023-05-05T07:55:49.405Z,55.8285
2023-05-05T07:56:51.975Z,57.6352
2023-05-05T07:57:54.896Z,56.3217
2023-05-05T07:58:57.409Z,53.2608
2023-05-05T08:00:07.557Z,53.3380
2023-05-05T08:01:10.208Z,53.4705
2023-05-05T08:03:13.023Z,52.5505
2023-05-05T08:03:13.023Z,51.2468
2023-05-05T08:04:15.595Z,49.2296
2023-05-05T08:05:18.151Z,49.8164
2023-05-05T08:06:20.655Z,51.9273
2023-05-05T08:07:23.527Z,51.9211
2023-05-05T08:08:26.081Z,49.3708
2023-05-05T08:09:28.557Z,48.1852
2023-05-05T08:10:31.323Z,47.5811
2023-05-05T08:11:33.864Z,49.1027
2023-05-05T08:12:36.327Z,50.3937
2023-05-05T08:13:38.836Z,48.5319
2023-05-05T08:14:41.350Z,49.4864
2023-05-05T08:15:44.062Z,49.3238
2023-05-05T08:16:46.558Z,49.4014
2023-05-05T08:17:49.492Z,48.4911
2023-05-05T08:18:52.195Z,49.1749
2023-05-05T08:19:54.678Z,47.6010
2023-05-05T08:20:57.160Z,44.7992
2023-05-05T08:22:01.205Z,44.8163
2023-05-05T08:23:00.322Z,43.5894
2023-05-05T08:24:02.782Z,47.2847
2023-05-05T08:25:05.415Z,46.8025
2023-05-05T08:27:08.187Z,50.9024
2023-05-05T08:27:08.187Z,47.3472
2023-05-05T08:28:10.681Z,47.0078
2023-05-05T08:30:14.119Z,48.3221
2023-05-05T08:30:14.119Z,46.9463
2023-05-05T08:31:16.635Z,46.0678
2023-05-05T08:32:19.128Z,46.5928
2023-05-05T08:33:21.624Z,48.2965
2023-05-05T08:34:24.113Z,47.0087
2023-05-05T08:35:26.611Z,45.4597
2023-05-05T08:36:29.103Z,45.0174
2023-05-05T08:37:31.672Z,48.4194
2023-05-05T08:38:34.146Z,47.0233
2023-05-05T08:39:36.637Z,47.0117
2023-05-05T08:40:39.147Z,44.8045
2023-05-05T08:41:41.647Z,44.1105
2023-05-05T08:42:44.155Z,44.7370
2023-05-05T08:43:46.652Z,48.7566
2023-05-05T08:44:49.641Z,49.5401
2023-05-05T08:45:52.155Z,49.9672
2023-05-05T08:46:54.694Z,49.3203
2023-05-05T08:47:57.168Z,47.5052
2023-05-05T08:48:59.672Z,51.5933
2023-05-05T08:50:02.283Z,50.8234
2023-05-05T08:51:05.670Z,51.2940
2023-05-05T08:52:08.256Z,51.6164
2023-05-05T08:53:10.742Z,52.5469
2023-05-05T08:54:13.245Z,51.7626
2023-05-05T08:55:15.826Z,50.4551
2023-05-05T08:57:18.689Z,51.6128
2023-05-05T08:57:18.689Z,49.4833
2023-05-05T08:58:21.188Z,48.8648
2023-05-05T08:59:23.672Z,47.0798
2023-05-05T09:00:26.164Z,48.1807
2023-05-05T09:02:29.511Z,47.8632
2023-05-05T09:02:29.511Z,48.6839
2023-05-05T09:03:32.040Z,47.4537
2023-05-05T09:04:34.614Z,46.7041
2023-05-05T09:05:37.356Z,46.6109
2023-05-05T09:06:39.805Z,46.9140
2023-05-05T09:07:42.312Z,46.7824
2023-05-05T09:08:44.596Z,45.6189
2023-05-05T09:09:47.072Z,47.3978
2023-05-05T09:10:52.929Z,47.7169
2023-05-05T09:11:55.487Z,47.6202
2023-05-05T09:12:57.989Z,49.7229
2023-05-05T09:14:00.494Z,47.2903
2023-05-05T09:15:02.996Z,47.1036
2023-05-05T09:16:05.525Z,46.9624
2023-05-05T09:17:08.002Z,48.6815
2023-05-05T09:18:10.572Z,50.2810
2023-05-05T09:19:13.019Z,48.9965
2023-05-05T09:20:15.519Z,47.8795
2023-05-05T09:21:18.003Z,48.7915
2023-05-05T09:22:20.492Z,49.5078
2023-05-05T09:23:22.991Z,49.3637
2023-05-05T09:24:25.485Z,48.3704
2023-05-05T09:25:27.978Z,46.6864
2023-05-05T09:26:30.486Z,47.2101
2023-05-05T09:27:32.986Z,48.9828
2023-05-05T09:28:35.490Z,49.4530
2023-05-05T09:29:38.002Z,48.0407
2023-05-05T09:30:40.269Z,47.6468
2023-05-05T09:31:42.769Z,45.3218
2023-05-05T09:32:43.849Z,43.8695
2023-05-05T09:34:47.003Z,43.9951
2023-05-05T09:34:47.003Z,47.7738
2023-05-05T09:35:49.239Z,47.3954
2023-05-05T09:36:51.743Z,47.1892
2023-05-05T09:37:54.235Z,47.3132
2023-05-05T09:38:58.780Z,46.6085
2023-05-05T09:39:57.487Z,45.5740
2023-05-05T09:40:59.970Z,44.2957
2023-05-05T09:42:02.437Z,44.1325
2023-05-05T09:43:04.962Z,44.3259
2023-05-05T09:44:07.461Z,43.7136
2023-05-05T09:45:10.109Z,45.5788
2023-05-05T09:46:12.662Z,43.8755
2023-05-05T09:47:28.539Z,44.0664
2023-05-05T09:48:16.498Z,46.3622
2023-05-05T09:49:18.998Z,45.6045
2023-05-05T09:50:21.492Z,45.5147
2023-05-05T09:51:23.950Z,44.7999
2023-05-05T09:52:26.502Z,46.0790
2023-05-05T09:53:28.980Z,46.0121
2023-05-05T09:54:31.487Z,47.5669
2023-05-05T09:55:34.324Z,46.2276
2023-05-05T09:56:36.834Z,43.6901
2023-05-05T09:57:39.372Z,42.7939
2023-05-05T09:58:41.967Z,43.3234
2023-05-05T09:59:44.477Z,44.1553
2023-05-05T10:00:46.989Z,44.9407
2023-05-05T10:01:49.510Z,46.5529
2023-05-05T10:02:52.034Z,46.9416
2023-05-05T10:03:54.516Z,45.3013
2023-05-05T10:04:57.144Z,45.1206
2023-05-05T10:05:59.674Z,46.7597
2023-05-05T10:07:02.179Z,45.8522
2023-05-05T10:08:04.679Z,45.3739
2023-05-05T10:09:07.177Z,43.9605
2023-05-05T10:10:09.862Z,44.5667
2023-05-05T10:11:12.640Z,46.5516
2023-05-05T10:12:15.357Z,46.3465
2023-05-05T10:13:17.944Z,47.9622
2023-05-05T10:14:20.551Z,45.0144
2023-05-05T10:15:23.047Z,45.1025
2023-05-05T10:16:26.796Z,43.3456
2023-05-05T10:17:26.287Z,43.1894
2023-05-05T10:18:28.782Z,44.3928
2023-05-05T10:19:31.265Z,43.0472
2023-05-05T10:20:33.795Z,45.2427
2023-05-05T10:21:36.283Z,46.1935
2023-05-05T10:22:38.933Z,45.0258
2023-05-05T10:23:41.418Z,45.0191
2023-05-05T10:24:43.915Z,42.5433
2023-05-05T10:25:46.434Z,40.6254
2023-05-05T10:26:48.921Z,42.8005
2023-05-05T10:27:51.694Z,42.6709
2023-05-05T10:28:54.176Z,41.2211
2023-05-05T10:29:56.699Z,44.3337
2023-05-05T10:30:59.202Z,45.7877
2023-05-05T10:32:08.739Z,48.2084
2023-05-05T10:33:27.249Z,49.1335
2023-05-05T10:34:08.464Z,48.8846
2023-05-05T10:35:10.979Z,47.3340
2023-05-05T10:36:13.533Z,46.7703
2023-05-05T10:37:15.996Z,46.2209
2023-05-05T10:38:18.531Z,47.1727
2023-05-05T10:39:21.010Z,47.8286
2023-05-05T10:40:23.555Z,49.0829
2023-05-05T10:41:26.192Z,48.8212
2023-05-05T10:42:28.975Z,47.3680
2023-05-05T10:43:31.497Z,47.7319
2023-05-05T10:44:33.985Z,46.5490
2023-05-05T10:45:36.570Z,45.5561
2023-05-05T10:46:39.175Z,45.1302
2023-05-05T10:47:41.700Z,44.4617
2023-05-05T10:48:44.273Z,46.6896
2023-05-05T10:49:46.782Z,47.1536
2023-05-05T10:50:49.288Z,47.4319
2023-05-05T10:52:52.011Z,45.2325
2023-05-05T10:52:52.011Z,46.6990
2023-05-05T10:54:02.225Z,45.0915
2023-05-05T10:55:04.705Z,47.6998
2023-05-05T10:56:07.187Z,47.5018
2023-05-05T10:57:09.714Z,47.5943
2023-05-05T10:58:12.239Z,45.6915
2023-05-05T10:59:15.569Z,45.6543
2023-05-05T11:00:18.104Z,45.8818
2023-05-05T11:01:20.688Z,46.1342
2023-05-05T11:02:23.343Z,47.6994
2023-05-05T11:03:23.397Z,48.8128
2023-05-05T11:04:25.987Z,48.1672
2023-05-05T11:05:28.457Z,47.0626
2023-05-05T11:06:31.172Z,46.5145
2023-05-05T11:07:33.671Z,48.5275
2023-05-05T11:08:36.149Z,46.5535
2023-05-05T11:09:38.667Z,46.7537
2023-05-05T11:10:41.135Z,47.1647
2023-05-05T11:11:43.791Z,45.2689
2023-05-05T11:12:46.350Z,47.5605
2023-05-05T11:13:49.049Z,43.7741
2023-05-05T11:14:51.628Z,45.8296
2023-05-05T11:15:54.235Z,47.2514
2023-05-05T11:16:56.949Z,44.9302
2023-05-05T11:17:59.597Z,42.3742
2023-05-05T11:19:02.111Z,41.8271
2023-05-05T11:20:04.670Z,41.2811
2023-05-05T11:21:07.168Z,39.6323
2023-05-05T11:22:09.672Z,40.6899
2023-05-05T11:23:14.003Z,41.1840
2023-05-05T11:24:14.962Z,39.7539
2023-05-05T11:25:18.255Z,38.2483
2023-05-05T11:26:26.008Z,38.3424
2023-05-05T11:27:21.180Z,42.3023
2023-05-05T11:28:23.729Z,41.8525
2023-05-05T11:29:26.222Z,40.5193
2023-05-05T11:30:29.409Z,42.9127
2023-05-05T11:31:32.029Z,40.6280
2023-05-05T11:32:34.604Z,39.1857
2023-05-05T11:33:37.099Z,42.2521
2023-05-05T11:34:39.599Z,41.5270
2023-05-05T11:35:42.082Z,40.7179
2023-05-05T11:36:44.589Z,43.2740
2023-05-05T11:37:47.093Z,41.4451
2023-05-05T11:38:49.585Z,42.5264
2023-05-05T11:39:52.075Z,41.4834
2023-05-05T11:40:54.783Z,42.6256
2023-05-05T11:41:57.241Z,44.2864
2023-05-05T11:42:59.733Z,42.5566
2023-05-05T11:44:02.240Z,42.3581
2023-05-05T11:45:04.724Z,39.2633
2023-05-05T11:46:07.262Z,38.9479
2023-05-05T11:47:09.726Z,40.7303
2023-05-05T11:48:12.532Z,40.3619
2023-05-05T11:49:14.998Z,42.3888
2023-05-05T11:50:17.738Z,40.4544
2023-05-05T11:51:20.257Z,39.4718
2023-05-05T11:52:22.750Z,39.7958
2023-05-05T11:53:25.295Z,39.5164
2023-05-05T11:54:27.829Z,40.3905
2023-05-05T11:55:30.287Z,41.2129
2023-05-05T11:56:32.798Z,41.0645
2023-05-05T11:57:35.286Z,41.0486
2023-05-05T11:58:37.791Z,41.9160
2023-05-05T11:59:40.290Z,44.2863
2023-05-05T12:00:42.799Z,44.4712
2023-05-05T12:01:45.308Z,42.9106
2023-05-05T12:02:47.862Z,43.9759
2023-05-05T12:03:50.746Z,43.1379
2023-05-05T12:04:53.380Z,40.4004
2023-05-05T12:05:56.032Z,40.9222
2023-05-05T12:06:58.461Z,40.7277
2023-05-05T12:08:00.936Z,42.6020
2023-05-05T12:09:03.409Z,41.2748
2023-05-05T12:10:05.966Z,41.9137
2023-05-05T12:11:08.458Z,41.1398
2023-05-05T12:12:10.946Z,39.1854
2023-05-05T12:13:13.468Z,38.1564
2023-05-05T12:14:16.103Z,41.9215
2023-05-05T12:15:18.560Z,39.7971
2023-05-05T12:16:21.147Z,38.8105
2023-05-05T12:17:23.625Z,40.5728
2023-05-05T12:18:26.085Z,39.9660
2023-05-05T12:19:28.579Z,41.9097
2023-05-05T12:20:31.076Z,41.7510
2023-05-05T12:21:33.566Z,39.6282
2023-05-05T12:22:36.118Z,38.5418
2023-05-05T12:23:38.627Z,41.8575
2023-05-05T12:24:41.104Z,40.2142
2023-05-05T12:25:43.559Z,39.8934
2023-05-05T12:26:46.066Z,39.6285
2023-05-05T12:27:48.534Z,39.7883
2023-05-05T12:28:51.057Z,39.1373
2023-05-05T12:29:53.541Z,39.0034
2023-05-05T12:30:56.053Z,41.5181
2023-05-05T12:31:58.600Z,39.2844
2023-05-05T12:33:01.165Z,40.8331
2023-05-05T12:34:03.650Z,40.2914
2023-05-05T12:35:06.155Z,40.5535
2023-05-05T12:36:08.621Z,39.4962